Time;durP1;ratioP1;P1;durP2;ratioP2;P2;SDS_P1;SDS_P2;PMS_P1;PMS_P2;Temp;Humidity;BMP_temperature;BMP_pressure;BME280_temperature;BME280_humidity;BME280_pressure;Samples;Min_cycle;Max_cycle;Signal;HPM_P1;HPM_P2
2021/03/07 00:01:50;;;;;;;22.92;15.63;;;1.20;99.90;;;;;;5057483;28;20110;-78
2021/03/07 00:04:17;;;;;;;24.50;14.93;;;1.20;99.90;;;;;;5055989;28;20079;-79
2021/03/07 00:06:44;;;;;;;20.58;14.95;;;1.10;99.90;;;;;;5056461;28;20103;-79
2021/03/07 00:09:11;;;;;;;23.42;15.75;;;1.00;99.90;;;;;;5056417;28;20091;-78
2021/03/07 00:11:37;;;;;;;20.83;14.88;;;1.00;99.90;;;;;;5055262;28;20041;-78
2021/03/07 00:14:03;;;;;;;25.40;15.77;;;1.00;99.90;;;;;;5055473;28;20131;-79
2021/03/07 00:16:30;;;;;;;26.85;17.05;;;0.90;99.90;;;;;;5055653;28;20128;-79
2021/03/07 00:18:56;;;;;;;22.88;15.75;;;1.00;99.90;;;;;;5056785;28;20240;-80
2021/03/07 00:21:23;;;;;;;21.10;15.15;;;0.90;99.90;;;;;;5056712;28;20486;-79
2021/03/07 00:23:50;;;;;;;22.35;15.60;;;1.00;99.90;;;;;;5056266;28;20521;-79
2021/03/07 00:26:16;;;;;;;26.45;16.98;;;1.00;99.90;;;;;;5057066;28;20160;-79
2021/03/07 00:28:43;;;;;;;27.70;15.10;;;0.90;99.90;;;;;;5056452;28;20084;-80
2021/03/07 00:31:09;;;;;;;28.15;15.27;;;1.00;99.90;;;;;;5037001;28;20128;-80
2021/03/07 00:33:35;;;;;;;26.45;16.10;;;0.90;99.90;;;;;;5035299;28;20105;-79
2021/03/07 00:36:02;;;;;;;37.70;22.65;;;1.00;99.90;;;;;;5033387;28;20087;-79
2021/03/07 00:38:28;;;;;;;31.50;20.48;;;1.20;99.90;;;;;;5036461;28;20089;-79
2021/03/07 00:40:56;;;;;;;31.65;17.67;;;1.30;99.90;;;;;;5036784;28;20052;-79
2021/03/07 00:43:22;;;;;;;27.30;16.67;;;1.20;99.90;;;;;;5035479;28;20076;-79
2021/03/07 00:45:49;;;;;;;26.75;16.77;;;1.30;99.90;;;;;;5029218;28;20548;-78
2021/03/07 00:48:15;;;;;;;23.02;15.48;;;1.50;99.90;;;;;;5023870;28;20120;-79
2021/03/07 00:50:42;;;;;;;23.77;15.88;;;1.50;99.90;;;;;;5025473;28;20053;-79
2021/03/07 00:53:08;;;;;;;21.27;15.15;;;1.40;99.90;;;;;;5025394;28;20404;-81
2021/03/07 00:55:34;;;;;;;21.60;15.20;;;1.30;99.90;;;;;;5033287;28;20467;-79
2021/03/07 00:58:03;;;;;;;23.02;14.63;;;1.20;99.90;;;;;;5034690;28;20095;-80
2021/03/07 01:00:30;;;;;;;20.38;14.95;;;1.10;99.90;;;;;;5036161;28;20076;-78
2021/03/07 01:02:57;;;;;;;23.90;14.35;;;1.00;99.90;;;;;;5034233;28;20477;-81
2021/03/07 01:05:26;;;;;;;23.70;13.52;;;0.90;99.90;;;;;;5033725;28;20089;-80
2021/03/07 01:07:52;;;;;;;22.05;13.57;;;0.90;99.90;;;;;;5033157;28;20092;-79
2021/03/07 01:10:22;;;;;;;20.42;14.20;;;0.80;99.90;;;;;;5037210;28;20045;-78
2021/03/07 01:12:50;;;;;;;25.05;13.60;;;0.80;99.90;;;;;;5038495;28;20087;-80
2021/03/07 01:15:20;;;;;;;19.23;12.73;;;0.70;99.90;;;;;;5037217;28;20129;-79
2021/03/07 01:17:46;;;;;;;20.40;13.23;;;0.70;99.90;;;;;;5035954;28;20140;-79
2021/03/07 01:20:15;;;;;;;21.92;12.95;;;0.60;99.90;;;;;;5035863;28;20081;-80
2021/03/07 01:22:42;;;;;;;20.70;12.93;;;0.70;99.90;;;;;;5036563;28;20538;-78
2021/03/07 01:25:10;;;;;;;17.45;11.82;;;0.50;99.90;;;;;;5034964;28;20049;-80
2021/03/07 01:27:36;;;;;;;18.15;12.70;;;0.50;99.90;;;;;;5036822;28;20084;-79
2021/03/07 01:30:05;;;;;;;18.40;12.68;;;0.50;99.90;;;;;;5037812;28;20085;-80
2021/03/07 01:32:33;;;;;;;20.77;12.65;;;0.50;99.90;;;;;;5036543;28;20128;-79
2021/03/07 01:34:59;;;;;;;17.23;12.23;;;0.50;99.90;;;;;;5039177;28;20080;-80
2021/03/07 01:37:26;;;;;;;17.85;12.35;;;0.40;99.90;;;;;;5037599;28;20050;-79
2021/03/07 01:39:54;;;;;;;18.60;12.18;;;0.40;99.90;;;;;;5035959;28;20076;-80
2021/03/07 01:42:20;;;;;;;18.70;11.77;;;0.40;99.90;;;;;;5035784;28;20474;-80
2021/03/07 01:44:47;;;;;;;15.98;11.80;;;0.40;99.90;;;;;;5037436;28;20069;-80
2021/03/07 01:47:17;;;;;;;16.92;11.75;;;0.40;99.90;;;;;;5036038;28;20124;-80
2021/03/07 01:49:45;;;;;;;16.55;11.82;;;0.40;99.90;;;;;;5038958;28;20118;-81
2021/03/07 01:52:11;;;;;;;17.10;12.20;;;0.30;99.90;;;;;;5043222;28;20439;-78
2021/03/07 01:54:38;;;;;;;18.90;12.23;;;0.30;99.90;;;;;;5039981;28;20080;-79
2021/03/07 01:57:05;;;;;;;19.70;12.60;;;0.30;99.90;;;;;;5039176;28;20506;-78
2021/03/07 01:59:34;;;;;;;17.63;11.93;;;0.30;99.90;;;;;;5039732;28;20053;-81
2021/03/07 02:02:01;;;;;;;17.73;12.13;;;0.30;99.90;;;;;;5041593;28;20049;-81
2021/03/07 02:04:27;;;;;;;17.88;12.55;;;0.30;99.90;;;;;;5040442;28;20481;-80
2021/03/07 02:06:55;;;;;;;21.30;12.75;;;0.30;99.90;;;;;;5040427;28;20144;-79
2021/03/07 02:09:21;;;;;;;16.35;12.20;;;0.30;99.90;;;;;;5043693;28;20053;-81
2021/03/07 02:11:49;;;;;;;17.30;12.43;;;0.30;99.90;;;;;;5042364;28;20109;-81
2021/03/07 02:14:16;;;;;;;21.55;13.50;;;0.30;99.90;;;;;;5041734;28;20084;-81
2021/03/07 02:16:44;;;;;;;18.65;12.52;;;0.30;99.90;;;;;;5041515;28;20073;-80
2021/03/07 02:19:10;;;;;;;19.13;12.82;;;0.20;99.90;;;;;;5041893;28;20060;-81
2021/03/07 02:21:43;;;;;;;20.33;12.40;;;0.20;99.90;;;;;;5045632;28;20077;-81
2021/03/07 02:24:12;;;;;;;18.40;12.25;;;0.10;99.90;;;;;;5049632;28;20079;-83
2021/03/07 02:26:41;;;;;;;20.70;13.88;;;0.10;99.90;;;;;;5045488;28;20103;-81
2021/03/07 02:29:09;;;;;;;20.30;13.75;;;0.10;99.90;;;;;;5042746;28;20521;-80
2021/03/07 02:31:40;;;;;;;20.67;12.45;;;0.10;99.90;;;;;;5043316;28;20084;-82
2021/03/07 02:34:10;;;;;;;19.83;12.60;;;0.10;99.90;;;;;;5040605;28;20077;-80
2021/03/07 02:36:41;;;;;;;17.63;12.00;;;0.00;99.90;;;;;;5035297;28;20137;-79
2021/03/07 02:39:09;;;;;;;17.23;11.98;;;0.00;99.90;;;;;;5035252;28;20056;-80
2021/03/07 02:41:36;;;;;;;16.98;12.27;;;-0.10;99.90;;;;;;5040299;28;20072;-79
2021/03/07 02:44:06;;;;;;;19.80;13.48;;;-0.10;99.90;;;;;;5041755;28;20056;-80
2021/03/07 02:46:35;;;;;;;20.58;13.25;;;-0.20;99.90;;;;;;5035413;28;20123;-80
2021/03/07 02:49:06;;;;;;;19.05;12.40;;;-0.20;99.90;;;;;;5035471;28;20080;-79
2021/03/07 02:51:35;;;;;;;18.48;12.75;;;-0.20;99.90;;;;;;5035003;28;20558;-82
2021/03/07 02:54:07;;;;;;;17.95;12.30;;;-0.20;99.90;;;;;;5034585;28;20081;-80
2021/03/07 02:56:37;;;;;;;19.90;12.95;;;-0.20;99.90;;;;;;5033988;28;20054;-83
2021/03/07 02:59:08;;;;;;;18.30;13.07;;;-0.30;99.90;;;;;;5035701;28;20534;-79
2021/03/07 03:01:36;;;;;;;19.75;13.77;;;-0.30;99.90;;;;;;5037156;28;20049;-80
2021/03/07 03:04:02;;;;;;;20.92;13.25;;;-0.40;99.90;;;;;;5037167;28;20080;-80
2021/03/07 03:06:30;;;;;;;22.13;14.15;;;-0.40;99.90;;;;;;5073985;22;20045;-78
2021/03/07 03:09:00;;;;;;;22.45;14.43;;;-0.50;99.90;;;;;;5059088;28;20049;-78
2021/03/07 03:11:32;;;;;;;21.45;14.68;;;-0.60;99.90;;;;;;5062184;28;20439;-79
2021/03/07 03:14:00;;;;;;;21.15;14.02;;;-0.60;99.90;;;;;;5064852;28;20203;-80
2021/03/07 03:16:28;;;;;;;20.77;14.27;;;-0.50;99.90;;;;;;5049264;28;20050;-80
2021/03/07 03:18:56;;;;;;;21.42;14.60;;;-0.50;99.90;;;;;;5045769;28;20046;-79
2021/03/07 03:21:23;;;;;;;21.88;14.52;;;-0.50;99.90;;;;;;5042388;28;20053;-79
2021/03/07 03:23:50;;;;;;;21.27;14.18;;;-0.60;99.90;;;;;;5042380;28;20081;-78
2021/03/07 03:26:19;;;;;;;24.20;14.55;;;-0.50;99.90;;;;;;5042328;28;20057;-79
2021/03/07 03:28:48;;;;;;;18.88;13.82;;;-0.60;99.90;;;;;;5043603;28;20073;-80
2021/03/07 03:31:16;;;;;;;19.30;13.38;;;-0.60;99.90;;;;;;5043363;28;20045;-79
2021/03/07 03:33:42;;;;;;;20.38;13.57;;;-0.60;99.90;;;;;;5041704;28;20081;-79
2021/03/07 03:36:09;;;;;;;25.77;16.52;;;-0.60;99.90;;;;;;5041662;28;20049;-80
2021/03/07 03:38:46;;;;;;;21.63;14.68;;;-0.60;99.90;;;;;;5043477;28;20408;-80
2021/03/07 03:41:14;;;;;;;19.10;13.77;;;-0.60;99.90;;;;;;5043540;28;20060;-79
2021/03/07 03:43:42;;;;;;;22.50;14.13;;;-0.60;99.90;;;;;;5042077;28;20081;-78
2021/03/07 03:46:10;;;;;;;27.05;15.18;;;-0.60;99.90;;;;;;5042789;28;20080;-78
2021/03/07 03:48:40;;;;;;;20.90;13.65;;;-0.70;99.90;;;;;;5043601;28;20466;-80
2021/03/07 03:51:09;;;;;;;19.88;13.93;;;-0.70;99.90;;;;;;5037547;28;20077;-79
2021/03/07 03:53:37;;;;;;;23.10;14.82;;;-0.80;99.90;;;;;;5037059;28;20049;-79
2021/03/07 03:56:04;;;;;;;22.63;14.50;;;-0.80;99.90;;;;;;5037103;28;20053;-79
2021/03/07 03:58:40;;;;;;;20.95;14.18;;;-0.80;99.90;;;;;;5036098;28;20084;-78
2021/03/07 04:01:08;;;;;;;21.98;14.73;;;-0.80;99.90;;;;;;5034006;28;20191;-77
2021/03/07 04:03:36;;;;;;;22.23;14.80;;;-0.80;99.90;;;;;;5032996;28;20050;-77
2021/03/07 04:06:04;;;;;;;21.50;14.50;;;-0.80;99.90;;;;;;5032877;28;20439;-77
2021/03/07 04:08:30;;;;;;;21.55;14.77;;;-0.80;99.90;;;;;;5038661;28;20080;-78
2021/03/07 04:10:58;;;;;;;22.55;14.15;;;-0.80;99.90;;;;;;5040800;28;20045;-78
2021/03/07 04:13:26;;;;;;;21.30;14.25;;;-0.80;99.90;;;;;;5039246;28;20045;-77
2021/03/07 04:15:53;;;;;;;21.75;14.45;;;-0.80;99.90;;;;;;5040067;28;20084;-77
2021/03/07 04:18:23;;;;;;;20.83;14.90;;;-0.80;99.90;;;;;;5036816;28;20121;-77
2021/03/07 04:20:50;;;;;;;21.23;13.95;;;-0.90;99.90;;;;;;5037867;28;20069;-77
2021/03/07 04:23:18;;;;;;;20.65;14.35;;;-0.90;99.90;;;;;;5042796;28;20069;-78
2021/03/07 04:25:45;;;;;;;18.42;13.77;;;-0.90;99.90;;;;;;5041881;28;20086;-78
2021/03/07 04:28:11;;;;;;;22.10;15.15;;;-0.90;99.90;;;;;;5045374;28;20077;-78
2021/03/07 04:30:39;;;;;;;24.33;15.82;;;-1.00;99.90;;;;;;5041905;28;20053;-78
2021/03/07 04:33:07;;;;;;;24.52;15.38;;;-1.10;99.90;;;;;;5042402;28;20069;-79
2021/03/07 04:35:34;;;;;;;21.70;15.30;;;-1.20;99.90;;;;;;5045602;28;20061;-78
2021/03/07 04:38:02;;;;;;;22.23;15.35;;;-1.20;99.90;;;;;;5042497;28;20098;-78
2021/03/07 04:40:30;;;;;;;22.25;14.80;;;-1.20;99.90;;;;;;5045194;28;20053;-79
2021/03/07 04:42:57;;;;;;;23.85;15.68;;;-1.20;99.90;;;;;;5042931;28;20053;-78
2021/03/07 04:45:25;;;;;;;23.20;14.80;;;-1.20;99.90;;;;;;5043916;28;20084;-78
2021/03/07 04:47:51;;;;;;;25.27;14.85;;;-1.20;99.90;;;;;;5046220;28;20243;-77
2021/03/07 04:50:18;;;;;;;22.13;14.82;;;-1.20;99.90;;;;;;5044764;28;20053;-77
2021/03/07 04:52:45;;;;;;;24.75;14.52;;;-1.20;99.90;;;;;;5043665;28;20057;-77
2021/03/07 04:55:13;;;;;;;22.20;14.82;;;-1.20;99.90;;;;;;5041561;28;20051;-77
2021/03/07 04:57:41;;;;;;;23.45;14.98;;;-1.20;99.90;;;;;;5039758;28;20045;-78
2021/03/07 05:00:09;;;;;;;20.63;13.40;;;-1.20;99.90;;;;;;5041501;28;20085;-77
2021/03/07 05:02:36;;;;;;;19.98;13.25;;;-1.20;99.90;;;;;;5040870;28;20049;-78
2021/03/07 05:05:03;;;;;;;24.00;14.43;;;-1.30;99.90;;;;;;5042835;28;20085;-79
2021/03/07 05:07:29;;;;;;;21.00;14.80;;;-1.30;99.90;;;;;;5042518;28;20053;-78
2021/03/07 05:09:58;;;;;;;21.98;14.95;;;-1.40;99.90;;;;;;5043881;28;20107;-79
2021/03/07 05:12:25;;;;;;;24.52;15.43;;;-1.40;99.90;;;;;;5043944;28;20077;-79
2021/03/07 05:14:52;;;;;;;24.15;15.27;;;-1.50;99.90;;;;;;5043639;28;20053;-80
2021/03/07 05:17:19;;;;;;;24.85;15.70;;;-1.50;99.90;;;;;;5042505;28;20053;-79
2021/03/07 05:19:45;;;;;;;20.13;14.40;;;-1.60;99.90;;;;;;5042782;28;20059;-79
2021/03/07 05:22:12;;;;;;;22.63;15.07;;;-1.70;99.90;;;;;;5043401;28;20150;-78
2021/03/07 05:24:39;;;;;;;22.13;15.52;;;-1.60;99.90;;;;;;5043868;28;20053;-79
2021/03/07 05:27:06;;;;;;;24.23;15.18;;;-1.60;99.90;;;;;;5040183;28;20489;-78
2021/03/07 05:29:33;;;;;;;24.30;16.05;;;-1.60;99.90;;;;;;5040276;28;20099;-77
2021/03/07 05:32:01;;;;;;;26.00;15.55;;;-1.50;99.90;;;;;;5036612;28;20087;-77
2021/03/07 05:34:27;;;;;;;25.73;15.95;;;-1.50;99.90;;;;;;5038714;28;20049;-77
2021/03/07 05:36:53;;;;;;;24.58;16.30;;;-1.50;99.90;;;;;;5039614;28;20076;-78
2021/03/07 05:39:20;;;;;;;26.38;16.88;;;-1.60;99.90;;;;;;5040804;28;20080;-78
2021/03/07 05:41:46;;;;;;;24.20;16.30;;;-1.50;99.90;;;;;;5040037;28;20053;-77
2021/03/07 05:44:13;;;;;;;28.83;16.75;;;-1.50;99.90;;;;;;5048597;28;20072;-80
2021/03/07 05:46:40;;;;;;;29.42;16.35;;;-1.50;99.90;;;;;;5046885;28;20060;-79
2021/03/07 05:49:08;;;;;;;26.92;16.30;;;-1.50;99.90;;;;;;5045107;28;20078;-79
2021/03/07 05:51:34;;;;;;;25.23;16.65;;;-1.60;99.90;;;;;;5046597;28;20054;-79
2021/03/07 05:54:01;;;;;;;26.70;17.02;;;-1.60;99.90;;;;;;5047159;28;20076;-79
2021/03/07 05:56:28;;;;;;;24.73;16.35;;;-1.60;99.90;;;;;;5054013;28;20041;-78
2021/03/07 05:58:56;;;;;;;25.30;17.38;;;-1.60;99.90;;;;;;5054960;28;20045;-79
2021/03/07 06:01:23;;;;;;;27.55;17.42;;;-1.60;99.90;;;;;;5047837;28;20053;-78
2021/03/07 06:03:50;;;;;;;27.27;17.80;;;-1.60;99.90;;;;;;5041982;28;20052;-78
2021/03/07 06:06:17;;;;;;;24.80;17.08;;;-1.60;99.90;;;;;;5038969;28;20049;-79
2021/03/07 06:08:43;;;;;;;27.50;17.77;;;-1.60;99.90;;;;;;5038762;28;20497;-79
2021/03/07 06:11:30;;;;;;;24.05;15.82;;;-1.60;99.90;;;;;;5042081;28;20077;-78
2021/03/07 06:13:56;;;;;;;27.10;17.60;;;-1.60;99.90;;;;;;5041988;28;20054;-78
2021/03/07 06:16:23;;;;;;;26.20;18.00;;;-1.60;99.90;;;;;;5040801;28;20100;-78
2021/03/07 06:18:50;;;;;;;24.17;16.48;;;-1.60;99.90;;;;;;5041886;28;20496;-78
2021/03/07 06:21:32;;;;;;;31.75;18.50;;;-1.60;99.90;;;;;;5041767;28;20049;-79
2021/03/07 06:24:00;;;;;;;26.25;17.13;;;-1.60;99.90;;;;;;5041692;28;20053;-79
2021/03/07 06:26:26;;;;;;;28.48;17.35;;;-1.60;99.90;;;;;;5036683;28;20057;-79
2021/03/07 06:29:09;;;;;;;29.65;17.75;;;-1.60;99.90;;;;;;5037234;28;20096;-79
2021/03/07 06:31:36;;;;;;;26.98;18.38;;;-1.60;99.90;;;;;;5047849;28;20123;-78
2021/03/07 06:34:04;;;;;;;31.60;18.77;;;-1.60;99.90;;;;;;5048603;28;20100;-78
2021/03/07 06:36:31;;;;;;;29.13;18.45;;;-1.60;99.90;;;;;;5042895;28;20053;-78
2021/03/07 06:38:59;;;;;;;28.08;17.63;;;-1.50;99.90;;;;;;5039330;28;20076;-78
2021/03/07 06:41:28;;;;;;;26.15;17.77;;;-1.50;99.90;;;;;;5038564;28;20049;-77
2021/03/07 06:44:08;;;;;;;31.20;18.23;;;-1.40;99.90;;;;;;5039383;28;20052;-79
2021/03/07 06:46:36;;;;;;;28.27;17.42;;;-1.40;99.90;;;;;;5039604;28;20053;-78
2021/03/07 06:49:03;;;;;;;24.80;17.33;;;-1.10;99.90;;;;;;5037276;28;20077;-77
2021/03/07 06:51:32;;;;;;;29.88;17.98;;;-0.70;99.90;;;;;;5037682;28;20053;-77
2021/03/07 06:54:00;;;;;;;28.88;15.70;;;-0.30;99.90;;;;;;5042785;28;20091;-79
2021/03/07 06:56:39;;;;;;;24.38;15.02;;;0.50;99.90;;;;;;5045746;28;20042;-80
2021/03/07 06:59:10;;;;;;;25.25;15.00;;;1.30;99.90;;;;;;5045022;28;20053;-79
2021/03/07 07:01:39;;;;;;;21.75;13.45;;;2.10;99.90;;;;;;5043333;28;20077;-79
2021/03/07 07:04:06;;;;;;;21.23;14.15;;;2.80;99.90;;;;;;5040349;28;20041;-79
2021/03/07 07:06:35;;;;;;;21.85;14.43;;;3.10;99.90;;;;;;5038377;28;20053;-78
2021/03/07 07:09:01;;;;;;;19.77;13.95;;;3.50;99.90;;;;;;5040009;28;20045;-78
2021/03/07 07:11:28;;;;;;;22.67;14.85;;;3.90;99.90;;;;;;5040240;28;20164;-80
2021/03/07 07:13:55;;;;;;;21.20;15.27;;;4.40;99.90;;;;;;5038564;28;20088;-78
2021/03/07 07:16:23;;;;;;;24.75;16.92;;;4.90;99.90;;;;;;5037117;28;20502;-79
2021/03/07 07:18:49;;;;;;;24.17;17.45;;;5.30;99.90;;;;;;5038830;28;20049;-78
2021/03/07 07:21:18;;;;;;;23.40;17.35;;;5.10;99.90;;;;;;5027140;28;20054;-79
2021/03/07 07:23:47;;;;;;;23.33;16.80;;;5.10;99.90;;;;;;5025663;28;20456;-79
2021/03/07 07:26:14;;;;;;;28.15;18.60;;;5.50;99.90;;;;;;5019543;28;20064;-79
2021/03/07 07:28:41;;;;;;;24.35;16.33;;;5.80;99.90;;;;;;5019690;28;20493;-79
2021/03/07 07:31:10;;;;;;;24.77;16.88;;;6.20;99.90;;;;;;5018378;28;20076;-78
2021/03/07 07:33:48;;;;;;;26.50;18.38;;;6.50;99.90;;;;;;5018751;28;20069;-79
2021/03/07 07:36:22;;;;;;;23.67;17.90;;;6.70;99.90;;;;;;5019359;28;20081;-79
2021/03/07 07:38:51;;;;;;;26.77;19.15;;;6.80;99.90;;;;;;5032630;28;20046;-80
2021/03/07 07:41:31;;;;;;;25.98;18.45;;;6.90;99.90;;;;;;5041577;28;20081;-80
2021/03/07 07:43:58;;;;;;;24.73;18.02;;;7.20;99.90;;;;;;5045984;28;20053;-79
2021/03/07 07:46:25;;;;;;;25.75;18.80;;;7.30;99.90;;;;;;5044402;28;20046;-80
2021/03/07 07:48:51;;;;;;;25.13;17.98;;;7.30;99.90;;;;;;5044251;28;20049;-79
2021/03/07 07:51:39;;;;;;;23.15;18.40;;;7.40;99.90;;;;;;5046000;28;20045;-79
2021/03/07 07:54:08;;;;;;;27.90;18.88;;;7.70;99.90;;;;;;5039810;28;20081;-78
2021/03/07 07:56:39;;;;;;;26.70;18.80;;;7.80;99.90;;;;;;5042444;28;20057;-79
2021/03/07 08:02:48;;;;;;;26.27;19.05;;;8.10;99.90;;;;;;5039686;28;20052;-78
2021/03/07 08:05:41;;;;;;;28.42;18.10;;;7.70;99.90;;;;;;5038760;28;20072;-79
2021/03/07 08:08:09;;;;;;;25.60;17.58;;;7.70;99.90;;;;;;5038878;28;20056;-81
2021/03/07 08:10:58;;;;;;;27.08;18.88;;;7.80;99.90;;;;;;5038099;28;20559;-80
2021/03/07 08:13:47;;;;;;;27.10;18.58;;;7.80;99.90;;;;;;5034362;28;20046;-79
2021/03/07 08:16:42;;;;;;;29.00;19.23;;;8.10;99.90;;;;;;5038132;28;20058;-80
2021/03/07 08:19:10;;;;;;;27.00;18.65;;;8.40;99.90;;;;;;5046852;28;20044;-79
2021/03/07 08:21:57;;;;;;;24.80;18.20;;;8.40;99.90;;;;;;5049639;28;20041;-80
2021/03/07 08:24:23;;;;;;;24.35;18.83;;;8.30;99.90;;;;;;5051214;28;20060;-80
2021/03/07 08:27:06;;;;;;;27.70;19.42;;;8.50;99.90;;;;;;5048867;28;20052;-81
2021/03/07 08:29:48;;;;;;;25.23;19.00;;;8.50;99.90;;;;;;5053023;28;20060;-81
2021/03/07 08:32:32;;;;;;;24.88;19.25;;;7.80;99.90;;;;;;5046091;28;20415;-80
2021/03/07 08:35:00;;;;;;;24.00;17.83;;;7.60;99.90;;;;;;5044118;28;20534;-80
2021/03/07 08:37:27;;;;;;;26.15;19.10;;;7.20;99.90;;;;;;5041989;28;20143;-79
2021/03/07 08:40:31;;;;;;;27.42;19.95;;;7.10;99.90;;;;;;5041666;28;20171;-79
2021/03/07 08:43:14;;;;;;;22.50;18.38;;;7.30;99.90;;;;;;5023217;28;20085;-79
2021/03/07 08:45:58;;;;;;;;;;;7.50;99.90;;;;;;5040882;28;20057;-80
2021/03/07 08:48:24;;;;;;;;;;;7.30;99.90;;;;;;5039655;28;19980;-80
2021/03/07 08:50:52;;;;;;;25.02;17.85;;;7.40;99.90;;;;;;5041103;28;19921;-80
2021/03/07 08:53:22;;;;;;;28.25;18.92;;;7.30;99.90;;;;;;5040554;28;20049;-79
2021/03/07 08:55:50;;;;;;;29.20;18.27;;;7.30;99.90;;;;;;5039322;28;20730;-79
2021/03/07 08:58:18;;;;;;;28.95;20.25;;;7.50;99.90;;;;;;5042695;28;20041;-78
2021/03/07 09:00:46;;;;;;;195.43;105.22;;;7.70;99.90;;;;;;5044549;28;20053;-80
2021/03/07 09:03:13;;;;;;;33.15;23.33;;;7.20;99.90;;;;;;5040125;28;20045;-78
2021/03/07 09:09:55;;;;;;;27.17;22.27;;;7.30;99.90;;;;;;5075218;28;20056;-82
2021/03/07 09:12:50;;;;;;;;;;;;;;;;;;;;;
2021/03/07 09:15:39;;;;;;;23.90;18.20;;;6.40;99.90;;;;;;5062843;28;20085;-81
2021/03/07 09:18:06;;;;;;;24.90;18.08;;;6.40;99.90;;;;;;5046624;28;20500;-82
2021/03/07 09:20:48;;;;;;;24.42;18.65;;;6.10;99.90;;;;;;5046644;28;20050;-82
2021/03/07 09:23:33;;;;;;;25.63;18.30;;;5.80;99.90;;;;;;5046180;28;20077;-81
2021/03/07 09:26:00;;;;;;;23.98;19.17;;;5.60;99.90;;;;;;5044314;28;20095;-80
2021/03/07 09:28:38;;;;;;;27.45;19.13;;;5.30;99.90;;;;;;5044230;28;20085;-80
2021/03/07 09:31:09;;;;;;;26.42;18.50;;;5.20;99.90;;;;;;5045018;28;20052;-80
2021/03/07 09:33:36;;;;;;;24.48;19.50;;;5.20;99.90;;;;;;5046837;28;20052;-79
2021/03/07 09:36:08;;;;;;;26.27;19.20;;;4.90;99.90;;;;;;5043886;28;20100;-80
2021/03/07 09:38:49;;;;;;;24.17;18.85;;;4.90;99.90;;;;;;5044348;28;20046;-80
2021/03/07 09:41:26;;;;;;;24.58;17.83;;;4.80;99.90;;;;;;5042682;28;20053;-81
2021/03/07 09:43:53;;;;;;;23.00;17.90;;;4.80;99.90;;;;;;5041859;28;20045;-80
2021/03/07 09:46:21;;;;;;;26.00;18.20;;;4.80;99.90;;;;;;5037547;28;20057;-80
2021/03/07 09:48:48;;;;;;;27.98;18.38;;;4.90;99.90;;;;;;5040273;28;20084;-80
2021/03/07 09:51:16;;;;;;;22.02;16.73;;;5.00;99.90;;;;;;5040230;28;20494;-81
2021/03/07 09:53:43;;;;;;;24.17;17.05;;;4.90;99.90;;;;;;5042344;28;20046;-80
2021/03/07 09:56:28;;;;;;;23.40;17.15;;;4.70;99.90;;;;;;5040057;28;20053;-80
2021/03/07 09:58:55;;;;;;;25.00;16.55;;;4.70;99.90;;;;;;5041458;28;20072;-79
2021/03/07 10:01:22;;;;;;;18.80;14.23;;;4.80;99.90;;;;;;5048733;28;20056;-78
2021/03/07 10:03:49;;;;;;;22.38;14.80;;;4.80;99.90;;;;;;5048542;28;20057;-80
2021/03/07 10:06:17;;;;;;;21.67;15.45;;;4.80;99.90;;;;;;5050490;28;20049;-78
2021/03/07 10:08:44;;;;;;;20.17;15.52;;;4.80;99.90;;;;;;5045897;28;20080;-78
2021/03/07 10:11:13;;;;;;;21.65;17.55;;;4.90;99.90;;;;;;5043738;28;20125;-81
2021/03/07 10:13:40;;;;;;;22.55;18.15;;;4.90;99.90;;;;;;5047559;28;20081;-78
2021/03/07 10:16:08;;;;;;;22.55;16.95;;;5.00;99.90;;;;;;5060518;28;20590;-81
2021/03/07 10:18:37;;;;;;;20.80;16.75;;;4.90;99.90;;;;;;5064592;28;20114;-81
2021/03/07 10:21:06;;;;;;;20.83;16.58;;;4.90;99.90;;;;;;5068503;28;20045;-78
2021/03/07 10:23:34;;;;;;;18.83;13.90;;;5.00;99.90;;;;;;5055691;28;20105;-81
2021/03/07 10:26:01;;;;;;;21.55;14.65;;;5.00;99.90;;;;;;5060238;28;20080;-82
2021/03/07 10:28:29;;;;;;;20.98;14.93;;;5.00;99.90;;;;;;5061322;28;20156;-80
2021/03/07 10:31:06;;;;;;;19.02;14.80;;;5.10;99.90;;;;;;5063392;28;20045;-78
2021/03/07 10:33:32;;;;;;;20.83;15.65;;;5.30;99.90;;;;;;5057549;28;20146;-80
2021/03/07 10:36:02;;;;;;;21.92;15.65;;;5.50;99.90;;;;;;5060814;28;20175;-81
2021/03/07 10:38:29;;;;;;;21.20;16.15;;;5.50;99.90;;;;;;5063425;28;20087;-81
2021/03/07 10:40:56;;;;;;;20.75;15.52;;;5.50;99.90;;;;;;5061867;28;20076;-82
2021/03/07 10:43:23;;;;;;;22.20;16.15;;;5.70;99.90;;;;;;5067580;28;20386;-80
2021/03/07 10:45:49;;;;;;;20.05;17.05;;;5.80;99.90;;;;;;5067599;28;20049;-81
2021/03/07 10:48:16;;;;;;;21.15;16.77;;;5.70;99.90;;;;;;5064163;28;20069;-81
2021/03/07 10:50:43;;;;;;;22.70;16.63;;;5.90;99.90;;;;;;5062752;28;20135;-80
2021/03/07 10:53:11;;;;;;;21.23;16.27;;;5.80;99.90;;;;;;5055949;28;20056;-81
2021/03/07 10:55:38;;;;;;;22.08;17.58;;;5.90;99.90;;;;;;5055119;28;20056;-81
2021/03/07 10:58:05;;;;;;;23.15;17.60;;;5.90;99.90;;;;;;5051747;28;20048;-81
2021/03/07 11:00:32;;;;;;;24.85;16.05;;;6.00;99.90;;;;;;5053009;28;20100;-81
2021/03/07 11:03:00;;;;;;;22.23;16.38;;;6.00;99.90;;;;;;5054276;28;20052;-83
2021/03/07 11:05:27;;;;;;;23.02;16.50;;;6.00;99.90;;;;;;5049076;28;20053;-83
2021/03/07 11:07:53;;;;;;;20.58;15.77;;;6.00;99.90;;;;;;5047699;28;20128;-82
2021/03/07 11:10:22;;;;;;;18.17;15.73;;;6.10;99.90;;;;;;5043579;28;20056;-82
2021/03/07 11:12:49;;;;;;;21.65;15.95;;;6.20;99.90;;;;;;5045671;28;20483;-84
2021/03/07 11:15:15;;;;;;;19.15;15.63;;;6.20;99.90;;;;;;5047909;28;20136;-82
2021/03/07 11:17:42;;;;;;;20.70;16.63;;;6.30;99.90;;;;;;5048732;28;20064;-82
2021/03/07 11:20:11;;;;;;;22.35;16.50;;;6.30;99.90;;;;;;5051181;28;20077;-81
2021/03/07 11:22:37;;;;;;;21.58;16.88;;;6.40;99.90;;;;;;5050298;28;20049;-83
2021/03/07 11:25:05;;;;;;;20.38;15.73;;;6.30;99.90;;;;;;5051663;28;20063;-81
2021/03/07 11:27:33;;;;;;;19.70;15.15;;;6.30;99.90;;;;;;5047018;28;20056;-82
2021/03/07 11:29:59;;;;;;;19.35;15.15;;;6.40;99.90;;;;;;5046382;28;20488;-81
2021/03/07 11:32:26;;;;;;;20.17;15.10;;;6.50;99.90;;;;;;5050097;28;20045;-83
2021/03/07 11:34:53;;;;;;;21.70;15.23;;;6.50;99.90;;;;;;5041827;28;20050;-80
2021/03/07 11:37:19;;;;;;;23.40;15.55;;;6.70;99.90;;;;;;5043735;28;20084;-82
2021/03/07 11:39:48;;;;;;;18.90;15.18;;;6.70;99.90;;;;;;5044156;28;20096;-82
2021/03/07 11:42:17;;;;;;;19.70;14.75;;;6.90;99.90;;;;;;5047927;28;20103;-81
2021/03/07 11:44:45;;;;;;;20.92;15.15;;;6.90;99.90;;;;;;5053617;28;20044;-82
2021/03/07 11:47:11;;;;;;;20.60;15.25;;;7.00;99.90;;;;;;5054993;28;20084;-81
2021/03/07 11:49:37;;;;;;;19.55;15.63;;;7.10;99.90;;;;;;5052749;28;20045;-81
2021/03/07 11:52:07;;;;;;;19.75;15.32;;;7.20;99.90;;;;;;5051363;28;20045;-80
2021/03/07 11:54:34;;;;;;;24.70;16.23;;;7.20;99.90;;;;;;5051939;28;20143;-81
2021/03/07 11:57:00;;;;;;;19.42;15.77;;;7.10;99.90;;;;;;5048837;28;20053;-81
2021/03/07 11:59:28;;;;;;;21.58;15.68;;;7.20;99.90;;;;;;5054175;28;20044;-82
2021/03/07 12:01:55;;;;;;;20.10;15.05;;;7.30;99.90;;;;;;5058044;28;20072;-82
2021/03/07 12:04:21;;;;;;;20.13;15.45;;;7.40;99.90;;;;;;5056144;28;20055;-82
2021/03/07 12:06:48;;;;;;;21.38;16.45;;;7.50;99.90;;;;;;5066524;28;20080;-80
2021/03/07 12:09:14;;;;;;;26.48;18.50;;;7.50;99.90;;;;;;5077173;28;20052;-81
2021/03/07 12:11:41;;;;;;;23.27;17.88;;;7.50;99.90;;;;;;5083413;28;20090;-82
2021/03/07 12:14:08;;;;;;;38.15;23.45;;;7.60;99.90;;;;;;5081050;28;20469;-81
2021/03/07 12:16:34;;;;;;;17.05;13.40;;;7.70;99.90;;;;;;5069327;28;20502;-82
2021/03/07 12:19:02;;;;;;;19.48;13.32;;;7.70;99.90;;;;;;5060948;28;20056;-82
2021/03/07 12:21:29;;;;;;;18.02;13.23;;;7.70;99.90;;;;;;5067744;28;20067;-81
2021/03/07 12:23:56;;;;;;;19.73;13.98;;;7.60;99.90;;;;;;5054827;28;20046;-81
2021/03/07 12:26:22;;;;;;;18.42;13.25;;;7.60;99.90;;;;;;5042117;28;20073;-80
2021/03/07 12:28:49;;;;;;;21.95;14.85;;;7.50;99.90;;;;;;5038595;28;20500;-81
2021/03/07 12:31:16;;;;;;;17.67;13.10;;;7.40;99.90;;;;;;5045593;28;20050;-80
2021/03/07 12:33:42;;;;;;;18.00;13.50;;;7.30;99.90;;;;;;5054069;28;20049;-82
2021/03/07 12:36:09;;;;;;;20.23;14.27;;;7.40;99.90;;;;;;5050872;28;20057;-80
2021/03/07 12:38:36;;;;;;;16.17;13.35;;;7.40;99.90;;;;;;5050068;28;20477;-81
2021/03/07 12:41:02;;;;;;;20.15;13.43;;;7.50;99.90;;;;;;5049829;28;20041;-80
2021/03/07 12:43:29;;;;;;;17.67;13.93;;;7.50;99.90;;;;;;5051326;28;20053;-81
2021/03/07 12:45:55;;;;;;;18.48;13.98;;;7.60;99.90;;;;;;5050160;28;20061;-80
2021/03/07 12:48:22;;;;;;;20.48;14.00;;;7.70;99.90;;;;;;5050998;28;20053;-80
2021/03/07 12:50:48;;;;;;;20.02;13.90;;;7.60;99.90;;;;;;5050680;28;20087;-80
2021/03/07 12:53:15;;;;;;;19.13;13.57;;;7.60;99.90;;;;;;5047635;28;20114;-79